ADDS METAR Data INFO
IDs: Format: Raw Decoded Include TAF

Data at: 0301 UTC 17 Jan 2018

KMZG 170255Z AUTO 09029G38KT 7SM OVC014 02/00 A3061 RMK A01
KMZG 170235Z AUTO 09029G38KT 3SM BR FEW007 BKN012 OVC017 02/00 A3061 RMK A01
KMZG 170215Z AUTO 09032G37KT 4SM BR FEW005 OVC013 02/00 A3060 RMK A01
KMZG 170155Z AUTO 10035G42KT 5SM BR OVC014 02/00 A3060 RMK A01
KMZG 170135Z AUTO 09031G40KT 2SM BR BKN012 OVC016 01/00 A3059 RMK A01 VIS 1 1/2V3
KMZG 170115Z AUTO 09030G43KT 2 1/2SM BR BKN012 OVC017 02/01 A3058 RMK A01 VIS 1 1/2V5
KMZG 170055Z AUTO 09032G39KT 2SM BR BKN012 OVC017 01/01 A3058 RMK A01 P0001 VIS 1 3/4V3
KMZG 170035Z AUTO 09033G44KT 2SM BR OVC012 01/01 A3057 RMK A01
KMZG 170015Z AUTO 09031G41KT 1 1/2SM BR SCT005 OVC012 01/01 A3057 RMK A01
KMZG 162355Z AUTO 08032G39KT 1 1/2SM BR SCT005 BKN010 OVC014 02/01 A3054 RMK A01
KMZG 162335Z AUTO 08030G39KT 3SM BR OVC013 02/01 A3054 RMK A01
KMZG 162315Z AUTO 08031G46KT 4SM BR OVC012 02/01 A3053 RMK A01
KMZG 162255Z AUTO 09031G38KT 2 1/2SM BR FEW005 OVC010 02/01 A3053 RMK A01 VIS 1 1/2V5
KMZG 162235Z AUTO 09032G42KT 1 3/4SM BR SCT003 OVC009 02/02 A3053 RMK A01 VIS 3/4V4
KMZG 162215Z AUTO 08026G36KT 1 3/4SM BR SCT003 OVC009 03/02 A3054 RMK A01 VIS 1/2V5
KMZG 162150Z AUTO 09031G43KT 1SM BR SCT003 OVC008 03/02 A3052 RMK A01
KMZG 162135Z AUTO 09031G50KT 1SM BR SCT005 OVC009 03/02 A3050 RMK A01 VIS 1/4V5
KMZG 162115Z AUTO 10037G47KT 3SM BR SCT006 BKN010 BKN014 03/02 A3050 RMK A01
KMZG 162055Z AUTO 10035G43KT 1 3/4SM BR SCT006 BKN009 BKN014 03/03 A3051 RMK A01
KMZG 162035Z AUTO 08032G48KT 1SM BR SCT005 BKN009 BKN014 03/03 A3049 RMK A01
KMZG 162015Z AUTO 08032G41KT 2SM BR SCT009 BKN014 03/03 A3050 RMK A01
KMZG 161955Z AUTO 09035G42KT 2SM BR FEW007 BKN013 03/03 A3050 RMK A01 P0001
KMZG 161935Z AUTO 09033G44KT 2 1/2SM BR SCT014 BKN019 04/03 A3048 RMK A01
KMZG 161915Z AUTO 10034G42KT 3/4SM BR BKN007 BKN014 BKN019 04/04 A3050 RMK A01
KMZG 161855Z AUTO 09031G39KT 1 1/2SM BR SCT009 BKN016 BKN022 04/03 A3050 RMK A01 P0001
KMZG 161835Z AUTO 10034G40KT 5SM BR FEW009 BKN015 BKN021 03/03 A3052 RMK A01
KMZG 161815Z AUTO 10033G40KT 2 1/2SM BR FEW005 BKN014 04/04 A3051 RMK A01
KMZG 161755Z AUTO 09031G42KT 1 1/2SM BR FEW009 BKN014 BKN019 04/04 A3051 RMK A01 P0001
KMZG 161735Z AUTO 10034G40KT 3SM BR FEW008 BKN014 04/04 A3052 RMK A01
KMZG 161715Z AUTO 09034G43KT 2 1/2SM BR SCT014 SCT022 05/05 A3051 RMK A01 VIS 1 3/4V4
KMZG 161655Z AUTO 10038G45KT 1 3/4SM BR FEW004 SCT008 BKN014 05/05 A3052 RMK A01 P0001
KMZG 161635Z AUTO 10035G43KT 2SM BR BKN014 05/05 A3051 RMK A01
KMZG 161615Z AUTO 09031G40KT 1 1/4SM BR SCT007 BKN014 05/05 A3051 RMK A01
KMZG 161555Z AUTO 10032G42KT 1SM BR BKN007 BKN014 05/05 A3051 RMK A01 P0003
KMZG 161535Z AUTO 11035G41KT 3/4SM BR OVC007 05/05 A3050 RMK A01
KMZG 161515Z AUTO 10036G42KT 1 3/4SM BR BKN007 BKN011 05/05 A3048 RMK A01
KMZG 161455Z AUTO 09033G44KT 2SM BR SCT006 BKN011 05/05 A3045 RMK A01 P0001
KMZG 161435Z AUTO 10035G43KT 1SM BR BKN005 OVC009 05/05 A3045 RMK A01
KMZG 161415Z AUTO 10033G43KT 1SM BR OVC005 06/06 A3044 RMK A01
KMZG 161355Z AUTO 09034G44KT 1SM BR OVC004 06/06 A3042 RMK A01 VIS 3/4V2
KMZG 161335Z AUTO 09033G43KT 2SM BR OVC005 06/06 A3041 RMK A01 VIS 1 3/4V4
KMZG 161315Z AUTO 09035G44KT 4SM BR OVC005 06/06 A3039 RMK A01
KMZG 161255Z AUTO 09034G43KT OVC006 07/07 A3039 RMK A01 P0001
KMZG 161235Z AUTO 09037G44KT 4SM BR OVC006 07/07 A3037 RMK A01
KMZG 161215Z AUTO 08035G43KT 1 1/4SM BR OVC005 08/08 A3036 RMK A01
KMZG 161155Z AUTO 08031G41KT 3/4SM BR OVC005 08/08 A3034 RMK A01 P0005
KMZG 161135Z AUTO 08031G40KT 3/4SM BR OVC005 09/09 A3033 RMK A01
KMZG 161115Z AUTO 08032G39KT 1SM BR OVC007 10/09 A3032 RMK A01
KMZG 161055Z AUTO 08035G42KT 4SM BR 11/09 A3030 RMK A01
KMZG 161035Z AUTO 08029G37KT 9SM FEW007 SCT034 BKN048 17/11 A3030 RMK A01
KMZG 161015Z AUTO 25004KT 10SM FEW033 SCT055 OVC090 20/12 A3029 RMK A01
KMZG 160955Z AUTO 24008KT 10SM FEW022 SCT034 BKN065 20/13 A3029 RMK A01
KMZG 160935Z AUTO 23008KT 10SM FEW026 SCT039 BKN065 20/13 A3028 RMK A01
KMZG 160915Z AUTO 23009G16KT 230V310 10SM SCT029 BKN049 OVC060 20/12 A3027 RMK A01
KMZG 160855Z AUTO 23010KT 10SM FEW031 BKN045 OVC060 20/13 A3028 RMK A01
KMZG 160835Z AUTO 23008G18KT 10SM FEW043 BKN060 OVC070 20/13 A3028 RMK A01
KMZG 160815Z AUTO 21013KT 10SM FEW036 SCT043 BKN050 20/13 A3028 RMK A01
KMZG 160755Z AUTO 21012G19KT 10SM FEW033 SCT039 BKN045 20/13 A3028 RMK A01
KMZG 160735Z AUTO 22008G17KT 10SM FEW032 SCT038 BKN050 20/12 A3028 RMK A01
KMZG 160715Z AUTO 23012G18KT 10SM FEW032 BKN039 OVC085 20/12 A3027 RMK A01
KMZG 160655Z AUTO 22011G18KT 10SM SCT036 OVC085 20/12 A3027 RMK A01
KMZG 160635Z AUTO 23012G21KT 10SM OVC080 20/12 A3027 RMK A01
KMZG 160615Z AUTO 22011G17KT 10SM FEW038 OVC080 20/11 A3027 RMK A01
KMZG 160555Z AUTO 22009G17KT 10SM FEW038 OVC080 20/12 A3028 RMK A01
KMZG 160535Z AUTO 23009G18KT 10SM OVC080 20/11 A3027 RMK A01
KMZG 160515Z AUTO 23009G16KT OVC080 20/11 A3027 RMK A01
KMZG 160455Z AUTO 23009G20KT 10SM FEW038 OVC075 20/11 A3027 RMK A01
KMZG 160435Z AUTO 21016KT 10SM FEW037 OVC075 20/12 A3027 RMK A01
KMZG 160415Z AUTO 21017KT 10SM FEW037 OVC075 20/11 A3027 RMK A01
KMZG 160355Z AUTO 21013G21KT 10SM SCT037 OVC075 20/12 A3027 RMK A01
KMZG 160335Z AUTO 22012G22KT 10SM SCT038 OVC070 20/12 A3026 RMK A01
KMZG 160315Z AUTO 23009G21KT 10SM OVC070 20/11 A3026 RMK A01
KMZG 160255Z AUTO 21016G21KT 10SM OVC070 20/12 A3026 RMK A01
KMZG 160235Z AUTO 21016G23KT 10SM FEW037 FEW047 OVC070 20/11 A3025 RMK A01
KMZG 160215Z AUTO 21018KT 10SM FEW038 SCT046 BKN060 20/11 A3025 RMK A01
KMZG 160155Z AUTO 21013G19KT 10SM FEW038 SCT047 OVC060 20/11 A3024 RMK A01
KMZG 160135Z AUTO 22009G18KT 10SM FEW036 SCT047 OVC070 20/11 A3024 RMK A01
KMZG 160115Z AUTO 23009G17KT 10SM FEW036 FEW043 BKN070 20/11 A3023 RMK A01
KMZG 160055Z AUTO 22008G22KT 10SM BKN036 BKN042 BKN075 20/11 A3022 RMK A01
KMZG 160035Z AUTO 23011G19KT 10SM BKN037 BKN043 BKN048 20/12 A3022 RMK A01
KMZG 160015Z AUTO 23011G17KT 10SM SCT036 BKN043 BKN070 20/12 A3022 RMK A01
KMZG 152355Z AUTO 23009G20KT 10SM SCT036 BKN044 BKN075 20/12 A3022 RMK A01
KMZG 152335Z AUTO 23010G21KT 10SM SCT035 SCT042 20/11 A3021 RMK A01
KMZG 152315Z AUTO 23010G20KT 10SM CLR 20/12 A3021 RMK A01
KMZG 152255Z AUTO 22009G18KT 10SM FEW065 20/12 A3021 RMK A01
KMZG 152235Z AUTO 23007G19KT 10SM SCT065 20/12 A3021 RMK A01
KMZG 152215Z AUTO 21014G20KT 10SM FEW070 20/12 A3021 RMK A01
KMZG 152155Z AUTO 22009G18KT 190V250 10SM FEW035 FEW070 20/12 A3022 RMK A01
KMZG 152135Z AUTO 23011G17KT 10SM FEW034 20/12 A3022 RMK A01
KMZG 152115Z AUTO 23013G20KT 10SM CLR 20/12 A3022 RMK A01
KMZG 152055Z AUTO 22011G21KT 10SM SCT035 20/12 A3022 RMK A01
KMZG 152035Z AUTO 23012G21KT 10SM CLR 20/12 A3023 RMK A01
KMZG 152015Z AUTO 23012G20KT 10SM CLR 20/12 A3024 RMK A01
KMZG 151955Z AUTO 24012G20KT 10SM FEW033 FEW045 20/12 A3024 RMK A01
KMZG 151935Z AUTO 23013KT 10SM SCT033 BKN045 BKN065 20/12 A3025 RMK A01
KMZG 151915Z AUTO 23012G20KT 10SM FEW032 FEW038 FEW065 20/12 A3026 RMK A01
KMZG 151855Z AUTO 22010G19KT 10SM FEW033 FEW044 20/12 A3027 RMK A01
KMZG 151835Z AUTO 22010G17KT 10SM FEW035 FEW045 20/12 A3029 RMK A01
KMZG 151815Z AUTO 24010G18KT 10SM FEW035 FEW045 SCT055 20/11 A3030 RMK A01
KMZG 151755Z AUTO 22010G17KT 10SM FEW039 FEW055 20/11 A3031 RMK A01
KMZG 151735Z AUTO 23010G17KT 10SM FEW035 20/11 A3032 RMK A01
KMZG 151715Z AUTO 22009G18KT 10SM CLR 20/11 A3033 RMK A01
KMZG 151655Z AUTO 23010G16KT 10SM FEW037 20/12 A3033 RMK A01
KMZG 151635Z AUTO 23009G17KT 10SM FEW038 20/11 A3033 RMK A01
KMZG 151615Z AUTO 23011G17KT 10SM FEW037 FEW043 20/11 A3034 RMK A01
KMZG 151555Z AUTO 23010G18KT 10SM SCT037 BKN044 19/11 A3033 RMK A01
KMZG 151535Z AUTO 24011KT 10SM SCT038 SCT045 19/11 A3033 RMK A01
KMZG 151515Z AUTO 21011G17KT 10SM FEW032 SCT040 BKN047 19/11 A3033 RMK A01